createdAt,value
2023-02-15T00:01:39.084Z,-1.11
2023-02-15T00:04:10.518Z,-1.25
2023-02-15T00:06:40.198Z,-1.47
2023-02-15T00:09:12.375Z,-1.43
2023-02-15T00:11:45.039Z,-1.57
2023-02-15T00:14:21.327Z,-2.15
2023-02-15T00:16:54.267Z,-2.50
2023-02-15T00:19:24.111Z,-2.26
2023-02-15T00:21:53.834Z,-2.29
2023-02-15T00:24:23.654Z,-2.09
2023-02-15T00:26:53.418Z,-1.84
2023-02-15T00:29:23.508Z,-1.59
2023-02-15T00:31:53.631Z,-1.41
2023-02-15T00:34:28.220Z,-1.25
2023-02-15T00:36:58.283Z,-1.40
2023-02-15T00:39:28.426Z,-1.29
2023-02-15T00:41:58.066Z,-1.26
2023-02-15T00:44:27.700Z,-1.46
2023-02-15T00:46:57.375Z,-1.75
2023-02-15T00:49:27.130Z,-1.73
2023-02-15T00:51:56.865Z,-1.66
2023-02-15T00:54:26.598Z,-1.47
2023-02-15T00:56:56.336Z,-1.49
2023-02-15T00:59:25.983Z,-1.40
2023-02-15T01:01:55.641Z,-1.46
2023-02-15T01:04:25.369Z,-1.46
2023-02-15T01:06:54.999Z,-1.43
2023-02-15T01:09:24.674Z,-1.34
2023-02-15T01:11:54.448Z,-1.71
2023-02-15T01:14:24.403Z,-1.40
2023-02-15T01:16:54.100Z,-1.50
2023-02-15T01:19:23.755Z,-1.58
2023-02-15T01:21:53.393Z,-1.46
2023-02-15T01:24:23.062Z,-1.52
2023-02-15T01:26:52.751Z,-1.56
2023-02-15T01:29:22.548Z,-1.60
2023-02-15T01:31:52.545Z,-1.78
2023-02-15T01:34:22.193Z,-1.52
2023-02-15T01:36:51.845Z,-1.58
2023-02-15T01:39:21.514Z,-1.91
2023-02-15T01:41:52.200Z,-1.96
2023-02-15T01:44:49.828Z,-2.02
2023-02-15T01:47:54.393Z,-1.94
2023-02-15T01:50:43.208Z,-2.10
2023-02-15T01:53:27.152Z,-2.23
2023-02-15T01:56:26.266Z,-2.12
2023-02-15T01:58:59.725Z,-2.07
2023-02-15T02:01:29.964Z,-1.75
2023-02-15T02:04:39.977Z,-1.86
2023-02-15T02:07:11.649Z,-1.59
2023-02-15T02:09:41.578Z,-1.70
2023-02-15T02:12:11.888Z,-1.66
2023-02-15T02:14:42.918Z,-1.69
2023-02-15T02:17:40.623Z,-1.59
2023-02-15T02:20:46.385Z,-1.94
2023-02-15T02:23:34.534Z,-2.25
2023-02-15T02:26:58.413Z,-2.12
2023-02-15T02:30:27.075Z,-2.18
2023-02-15T02:33:29.896Z,-2.12
2023-02-15T02:36:21.608Z,-2.23
2023-02-15T02:39:05.926Z,-2.02
2023-02-15T02:42:09.657Z,-2.19
2023-02-15T02:44:55.344Z,-2.31
2023-02-15T02:47:40.047Z,-2.19
2023-02-15T02:50:22.893Z,-2.31
2023-02-15T02:52:57.027Z,-2.59
2023-02-15T02:55:50.158Z,-2.47
2023-02-15T02:58:43.922Z,-2.57
2023-02-15T03:01:29.405Z,-2.43
2023-02-15T03:04:11.570Z,-2.63
2023-02-15T03:06:58.813Z,-2.53
2023-02-15T03:09:45.636Z,-2.36
2023-02-15T03:12:34.190Z,-2.48
2023-02-15T03:15:06.801Z,-2.59
2023-02-15T03:17:44.059Z,-2.46
2023-02-15T03:20:32.994Z,-2.29
2023-02-15T03:23:15.136Z,-2.20
2023-02-15T03:26:02.423Z,-2.34
2023-02-15T03:28:46.641Z,-2.34
2023-02-15T03:31:19.168Z,-2.42
2023-02-15T03:34:01.274Z,-2.03
2023-02-15T03:36:52.005Z,-2.07
2023-02-15T03:39:45.974Z,-2.02
2023-02-15T03:42:33.319Z,-2.26
2023-02-15T03:45:16.823Z,-2.28
2023-02-15T03:47:52.037Z,-2.05
2023-02-15T03:50:57.652Z,-2.14
2023-02-15T03:53:28.367Z,-2.24
2023-02-15T03:55:58.098Z,-2.19
2023-02-15T03:58:46.284Z,-2.23
2023-02-15T04:01:52.045Z,-2.41
2023-02-15T04:04:28.104Z,-2.26
2023-02-15T04:06:58.027Z,-2.28
2023-02-15T04:09:45.917Z,-2.65
2023-02-15T04:12:15.629Z,-2.79
2023-02-15T04:15:04.013Z,-2.77
2023-02-15T04:17:33.742Z,-2.93
2023-02-15T04:20:21.866Z,-2.91
2023-02-15T04:23:09.673Z,-2.89
2023-02-15T04:25:39.295Z,-2.74
2023-02-15T04:28:09.215Z,-2.58
2023-02-15T04:30:38.849Z,-2.80
2023-02-15T04:33:08.403Z,-2.88
2023-02-15T04:35:38.003Z,-2.75
2023-02-15T04:38:07.685Z,-2.79
2023-02-15T04:40:37.282Z,-2.88
2023-02-15T04:43:06.861Z,-2.66
2023-02-15T04:45:36.571Z,-2.74
2023-02-15T04:48:06.237Z,-2.81
2023-02-15T04:50:35.844Z,-2.95
2023-02-15T04:53:05.449Z,-2.99
2023-02-15T04:55:35.152Z,-2.75
2023-02-15T04:58:04.820Z,-2.80
2023-02-15T05:00:34.583Z,-2.79
2023-02-15T05:03:04.581Z,-2.80
2023-02-15T05:05:34.134Z,-2.92
2023-02-15T05:08:03.827Z,-2.76
2023-02-15T05:10:33.439Z,-2.87
2023-02-15T05:13:03.022Z,-2.84
2023-02-15T05:15:32.777Z,-2.73
2023-02-15T05:18:02.658Z,-2.83
2023-02-15T05:20:32.305Z,-3.00
2023-02-15T05:23:01.953Z,-3.16
2023-02-15T05:25:49.910Z,-3.26
2023-02-15T05:28:22.540Z,-3.55
2023-02-15T05:31:05.937Z,-3.39
2023-02-15T05:33:36.265Z,-3.28
2023-02-15T05:36:08.014Z,-3.29
2023-02-15T05:38:38.931Z,-3.32
2023-02-15T05:41:11.913Z,-3.36
2023-02-15T05:43:41.785Z,-3.33
2023-02-15T05:46:12.356Z,-3.60
2023-02-15T05:48:42.073Z,-3.09
2023-02-15T05:51:15.096Z,-3.15
2023-02-15T05:53:44.860Z,-3.30
2023-02-15T05:56:14.664Z,-3.38
2023-02-15T05:58:44.524Z,-3.27
2023-02-15T06:01:18.688Z,-2.96
2023-02-15T06:03:48.436Z,-3.23
2023-02-15T06:06:18.382Z,-2.99
2023-02-15T06:08:48.059Z,-2.88
2023-02-15T06:11:17.789Z,-2.67
2023-02-15T06:13:47.519Z,-2.87
2023-02-15T06:16:17.338Z,-2.75
2023-02-15T06:18:47.092Z,-2.52
2023-02-15T06:21:16.865Z,-2.35
2023-02-15T06:23:45.828Z,-2.40
2023-02-15T06:26:15.475Z,-2.29
2023-02-15T06:28:45.180Z,-1.13
2023-02-15T06:31:14.898Z,0.90
2023-02-15T06:33:44.614Z,1.80
2023-02-15T06:36:14.309Z,1.73
2023-02-15T06:38:44.798Z,1.71
2023-02-15T06:41:14.466Z,1.50
2023-02-15T06:43:44.233Z,2.27
2023-02-15T06:46:13.953Z,2.95
2023-02-15T06:48:44.683Z,1.75
2023-02-15T06:51:15.272Z,3.27
2023-02-15T06:53:45.041Z,2.83
2023-02-15T06:56:14.748Z,3.36
2023-02-15T06:58:46.941Z,2.90
2023-02-15T07:01:17.036Z,4.10
2023-02-15T07:03:46.824Z,4.57
2023-02-15T07:06:16.503Z,5.62
2023-02-15T07:08:46.193Z,5.55
2023-02-15T07:11:34.290Z,5.82
2023-02-15T07:14:03.816Z,6.56
2023-02-15T07:16:31.628Z,6.65
2023-02-15T07:19:01.259Z,6.77
2023-02-15T07:21:29.175Z,9.49
2023-02-15T07:23:59.959Z,6.89
2023-02-15T07:26:29.930Z,6.83
2023-02-15T07:28:59.559Z,7.39
2023-02-15T07:31:29.593Z,6.78
2023-02-15T07:33:59.155Z,8.05
2023-02-15T07:36:28.840Z,8.55
2023-02-15T07:38:58.428Z,7.38
2023-02-15T07:41:27.016Z,3.24
2023-02-15T07:43:56.628Z,2.81
2023-02-15T07:46:26.233Z,3.08
2023-02-15T07:48:56.867Z,3.16
2023-02-15T07:51:27.301Z,3.02
2023-02-15T07:53:57.120Z,2.89
2023-02-15T07:56:26.825Z,2.99
2023-02-15T07:58:56.911Z,3.12
2023-02-15T08:01:39.479Z,3.33
2023-02-15T08:04:12.063Z,3.29
2023-02-15T08:06:41.770Z,3.25
2023-02-15T08:09:16.166Z,3.74
2023-02-15T08:11:44.053Z,3.24
2023-02-15T08:14:18.737Z,4.13
2023-02-15T08:17:00.878Z,4.29
2023-02-15T08:19:33.693Z,4.60
2023-02-15T08:22:08.012Z,4.61
2023-02-15T08:24:38.999Z,4.66
2023-02-15T08:27:12.087Z,4.90
2023-02-15T08:29:43.366Z,4.87
2023-02-15T08:32:14.954Z,5.03
2023-02-15T08:34:44.679Z,5.17
2023-02-15T08:37:14.273Z,5.05
2023-02-15T08:39:44.562Z,4.90
2023-02-15T08:42:14.804Z,5.47
2023-02-15T08:44:44.310Z,5.39
2023-02-15T08:47:14.114Z,5.49
2023-02-15T08:49:42.821Z,6.01
2023-02-15T08:52:12.368Z,6.31
2023-02-15T08:54:41.882Z,6.03
2023-02-15T08:57:11.484Z,5.74
2023-02-15T08:59:40.951Z,6.32
2023-02-15T09:02:12.409Z,6.82
2023-02-15T09:04:42.007Z,6.64
2023-02-15T09:07:11.416Z,6.41
2023-02-15T09:09:40.892Z,6.78
2023-02-15T09:12:10.412Z,6.47
2023-02-15T09:14:39.878Z,6.14
2023-02-15T09:17:09.360Z,6.02
2023-02-15T09:19:38.840Z,6.28
2023-02-15T09:22:08.303Z,6.73
2023-02-15T09:24:37.087Z,6.79
2023-02-15T09:27:06.831Z,6.97
2023-02-15T09:29:35.636Z,6.74
2023-02-15T09:32:05.274Z,6.65
2023-02-15T09:34:35.169Z,6.78
2023-02-15T09:37:07.645Z,6.89
2023-02-15T09:39:44.094Z,7.27
2023-02-15T09:43:09.126Z,7.03
2023-02-15T09:46:40.359Z,7.13
2023-02-15T09:50:15.300Z,7.29
2023-02-15T09:53:19.589Z,7.38
2023-02-15T09:56:46.792Z,7.15
2023-02-15T09:59:36.565Z,7.31
2023-02-15T10:03:12.972Z,7.34
2023-02-15T10:06:32.434Z,7.26
2023-02-15T10:09:31.651Z,7.77
2023-02-15T10:12:56.003Z,8.20
2023-02-15T10:15:54.938Z,8.26
2023-02-15T10:19:06.432Z,8.02
2023-02-15T10:21:47.818Z,7.84
2023-02-15T10:24:26.156Z,7.83
2023-02-15T10:27:16.637Z,8.26
2023-02-15T10:29:57.381Z,8.42
2023-02-15T10:32:30.335Z,8.66
2023-02-15T10:35:15.341Z,7.95
2023-02-15T10:38:26.950Z,8.43
2023-02-15T10:41:09.717Z,8.09
2023-02-15T10:44:44.635Z,8.44
2023-02-15T10:47:49.759Z,8.64
2023-02-15T10:50:57.376Z,8.56
2023-02-15T10:54:09.201Z,8.34
2023-02-15T10:56:54.950Z,8.82
2023-02-15T10:59:50.360Z,8.70
2023-02-15T11:03:18.830Z,8.65
2023-02-15T11:06:14.616Z,8.92
2023-02-15T11:08:52.065Z,8.43
2023-02-15T11:11:36.183Z,8.43
2023-02-15T11:14:19.213Z,8.26
2023-02-15T11:16:54.282Z,8.73
2023-02-15T11:19:33.569Z,8.79
2023-02-15T11:22:07.621Z,8.42
2023-02-15T11:24:47.532Z,8.83
2023-02-15T11:27:34.304Z,9.13
2023-02-15T11:30:16.725Z,9.25
2023-02-15T11:32:52.614Z,9.04
2023-02-15T11:35:38.488Z,8.89
2023-02-15T11:38:21.687Z,8.86
2023-02-15T11:41:25.418Z,9.21
2023-02-15T11:44:08.038Z,9.16
2023-02-15T11:46:38.884Z,9.39
2023-02-15T11:49:38.923Z,9.44
2023-02-15T11:52:15.653Z,9.28
2023-02-15T11:54:51.559Z,8.92
2023-02-15T11:57:39.144Z,9.23
2023-02-15T12:00:37.290Z,9.00
2023-02-15T12:03:24.550Z,9.67
2023-02-15T12:06:03.821Z,9.61
2023-02-15T12:08:43.460Z,9.59
2023-02-15T12:11:39.498Z,9.29
2023-02-15T12:14:16.941Z,9.44
2023-02-15T12:16:57.033Z,9.65
2023-02-15T12:19:39.117Z,9.54
2023-02-15T12:22:26.334Z,9.61
2023-02-15T12:25:01.865Z,10.22
2023-02-15T12:27:34.605Z,10.06
2023-02-15T12:30:36.534Z,10.22
2023-02-15T12:33:46.623Z,9.95
2023-02-15T12:36:29.090Z,9.94
2023-02-15T12:39:13.598Z,9.76
2023-02-15T12:42:01.145Z,9.79
2023-02-15T12:44:38.256Z,9.86
2023-02-15T12:47:21.238Z,9.60
2023-02-15T12:50:19.148Z,9.66
2023-02-15T12:52:52.446Z,9.87
2023-02-15T12:55:32.273Z,9.73
2023-02-15T12:58:26.396Z,9.71
2023-02-15T13:01:22.396Z,9.85
2023-02-15T13:04:05.861Z,10.00
2023-02-15T13:06:37.652Z,10.11
2023-02-15T13:09:21.178Z,9.91
2023-02-15T13:11:51.214Z,10.13
2023-02-15T13:14:32.349Z,9.97
2023-02-15T13:17:07.761Z,9.68
2023-02-15T13:19:51.381Z,10.17
2023-02-15T13:22:43.293Z,10.07
2023-02-15T13:25:24.863Z,9.96
2023-02-15T13:28:03.043Z,9.71
2023-02-15T13:30:38.316Z,9.91
2023-02-15T13:33:31.900Z,9.81
2023-02-15T13:37:07.242Z,9.85
2023-02-15T13:39:47.403Z,9.92
2023-02-15T13:42:31.809Z,10.15
2023-02-15T13:46:02.979Z,10.22
2023-02-15T13:48:48.796Z,9.95
2023-02-15T13:51:41.828Z,9.85
2023-02-15T13:54:59.197Z,10.14
2023-02-15T13:57:52.580Z,10.04
2023-02-15T14:00:56.595Z,9.63
2023-02-15T14:03:57.872Z,9.50
2023-02-15T14:06:40.319Z,9.53
2023-02-15T14:10:04.539Z,9.40
2023-02-15T14:13:18.674Z,9.42
2023-02-15T14:16:38.708Z,9.49
2023-02-15T14:19:50.859Z,9.64
2023-02-15T14:22:44.414Z,9.49
2023-02-15T14:26:24.336Z,9.50
2023-02-15T14:29:24.398Z,9.72
2023-02-15T14:32:46.359Z,9.58
2023-02-15T14:35:29.997Z,9.53
2023-02-15T14:38:23.882Z,9.30
2023-02-15T14:41:08.742Z,9.47
2023-02-15T14:44:34.373Z,9.46
2023-02-15T14:47:23.733Z,9.11
2023-02-15T14:49:53.215Z,8.72
2023-02-15T14:52:22.795Z,8.99
2023-02-15T14:54:56.256Z,8.87
2023-02-15T14:57:28.792Z,8.88
2023-02-15T15:00:08.266Z,8.81
2023-02-15T15:02:51.142Z,8.67
2023-02-15T15:05:35.170Z,8.65
2023-02-15T15:08:06.967Z,8.81
2023-02-15T15:10:48.333Z,8.76
2023-02-15T15:13:32.821Z,8.40
2023-02-15T15:16:39.481Z,8.51
2023-02-15T15:19:53.715Z,8.42
2023-02-15T15:22:30.983Z,8.33
2023-02-15T15:25:13.194Z,8.52
2023-02-15T15:27:47.025Z,8.27
2023-02-15T15:30:19.328Z,8.14
2023-02-15T15:34:24.458Z,7.85
2023-02-15T15:37:29.537Z,7.82
2023-02-15T15:40:28.757Z,7.47
2023-02-15T15:43:37.501Z,7.32
2023-02-15T15:46:49.611Z,7.19
2023-02-15T15:49:23.227Z,7.10
2023-02-15T15:51:53.091Z,7.07
2023-02-15T15:54:25.854Z,6.70
2023-02-15T15:57:03.585Z,6.61
2023-02-15T15:59:36.230Z,6.47
2023-02-15T16:02:11.302Z,6.49
2023-02-15T16:04:40.712Z,6.35
2023-02-15T16:07:18.783Z,6.34
2023-02-15T16:10:08.204Z,6.32
2023-02-15T16:12:40.941Z,6.20
2023-02-15T16:15:45.781Z,6.15
2023-02-15T16:18:25.294Z,6.02
2023-02-15T16:21:01.949Z,5.97
2023-02-15T16:23:37.523Z,5.83
2023-02-15T16:26:28.298Z,5.83
2023-02-15T16:28:57.918Z,5.64
2023-02-15T16:31:27.668Z,5.62
2023-02-15T16:33:57.403Z,5.68
2023-02-15T16:36:29.922Z,5.62
2023-02-15T16:39:00.354Z,5.29
2023-02-15T16:41:31.886Z,5.44
2023-02-15T16:44:17.822Z,5.35
2023-02-15T16:46:55.028Z,5.13
2023-02-15T16:49:29.914Z,5.20
2023-02-15T16:52:09.664Z,5.25
2023-02-15T16:54:44.654Z,5.07
2023-02-15T16:57:30.911Z,4.91
2023-02-15T17:00:18.487Z,4.94
2023-02-15T17:03:25.337Z,4.89
2023-02-15T17:06:00.585Z,4.78
2023-02-15T17:08:38.155Z,4.86
2023-02-15T17:11:42.696Z,4.82
2023-02-15T17:14:19.096Z,4.73
2023-02-15T17:17:13.813Z,4.62
2023-02-15T17:19:55.328Z,4.44
2023-02-15T17:22:31.952Z,4.56
2023-02-15T17:25:06.591Z,4.51
2023-02-15T17:27:39.679Z,4.49
2023-02-15T17:30:33.778Z,4.36
2023-02-15T17:33:06.199Z,4.37
2023-02-15T17:35:35.344Z,4.34
2023-02-15T17:38:21.354Z,4.27
2023-02-15T17:40:51.006Z,4.20
2023-02-15T17:43:21.830Z,4.11
2023-02-15T17:45:53.592Z,4.05
2023-02-15T17:48:35.600Z,3.97
2023-02-15T17:51:12.623Z,3.97
2023-02-15T17:54:07.083Z,3.79
2023-02-15T17:56:39.820Z,3.71
2023-02-15T17:59:12.625Z,3.66
2023-02-15T18:02:09.434Z,3.64
2023-02-15T18:04:57.233Z,3.63
2023-02-15T18:07:46.437Z,3.32
2023-02-15T18:10:38.965Z,3.35
2023-02-15T18:13:08.869Z,3.28
2023-02-15T18:15:37.546Z,3.25
2023-02-15T18:18:13.285Z,3.28
2023-02-15T18:20:45.996Z,3.18
2023-02-15T18:23:20.365Z,2.92
2023-02-15T18:25:51.953Z,2.54
2023-02-15T18:28:23.826Z,2.60
2023-02-15T18:30:54.583Z,2.69
2023-02-15T18:33:41.491Z,2.60
2023-02-15T18:36:32.924Z,2.27
2023-02-15T18:39:08.922Z,2.39
2023-02-15T18:41:40.200Z,2.49
2023-02-15T18:44:13.349Z,2.32
2023-02-15T18:46:44.365Z,1.94
2023-02-15T18:49:15.183Z,1.64
2023-02-15T18:51:46.015Z,1.47
2023-02-15T18:54:26.128Z,1.44
2023-02-15T18:57:02.860Z,1.20
2023-02-15T18:59:36.039Z,1.26
2023-02-15T19:02:19.919Z,1.44
2023-02-15T19:04:50.903Z,1.61
2023-02-15T19:07:26.924Z,1.52
2023-02-15T19:09:59.964Z,1.51
2023-02-15T19:12:29.835Z,1.35
2023-02-15T19:14:59.861Z,1.34
2023-02-15T19:17:29.542Z,1.34
2023-02-15T19:20:00.040Z,1.33
2023-02-15T19:22:31.480Z,1.39
2023-02-15T19:25:08.113Z,1.30
2023-02-15T19:27:39.024Z,1.26
2023-02-15T19:30:30.120Z,1.12
2023-02-15T19:33:02.281Z,1.19
2023-02-15T19:35:35.919Z,1.26
2023-02-15T19:38:16.196Z,1.30
2023-02-15T19:40:48.670Z,1.28
2023-02-15T19:43:27.867Z,1.25
2023-02-15T19:45:57.478Z,1.19
2023-02-15T19:48:27.306Z,1.18
2023-02-15T19:50:57.257Z,1.27
2023-02-15T19:53:29.670Z,1.03
2023-02-15T19:56:01.050Z,1.06
2023-02-15T19:58:31.480Z,0.59
2023-02-15T20:01:03.302Z,0.40
2023-02-15T20:03:34.274Z,0.13
2023-02-15T20:06:03.067Z,0.01
2023-02-15T20:08:33.925Z,-0.10
2023-02-15T20:11:09.680Z,0.00
2023-02-15T20:13:37.522Z,0.10
2023-02-15T20:16:09.894Z,0.21
2023-02-15T20:18:44.686Z,0.16
2023-02-15T20:21:17.267Z,0.12
2023-02-15T20:23:48.060Z,0.21
2023-02-15T20:26:19.893Z,0.08
2023-02-15T20:28:50.520Z,0.00
2023-02-15T20:31:21.989Z,-0.24
2023-02-15T20:33:53.177Z,-0.13
2023-02-15T20:36:24.825Z,-0.08
2023-02-15T20:38:57.397Z,0.08
2023-02-15T20:41:37.649Z,0.12
2023-02-15T20:44:29.254Z,0.15
2023-02-15T20:47:01.647Z,0.12
2023-02-15T20:49:32.221Z,-0.03
2023-02-15T20:52:03.906Z,0.02
2023-02-15T20:54:36.811Z,-0.15
2023-02-15T20:57:12.058Z,-0.18
2023-02-15T20:59:42.608Z,-0.40
2023-02-15T21:02:23.990Z,-0.49
2023-02-15T21:04:55.590Z,-0.74
2023-02-15T21:07:26.218Z,-0.60
2023-02-15T21:09:56.774Z,-0.53
2023-02-15T21:12:27.477Z,-0.71
2023-02-15T21:14:58.343Z,-0.42
2023-02-15T21:17:28.874Z,-0.60
2023-02-15T21:19:58.584Z,-0.82
2023-02-15T21:22:29.244Z,-0.45
2023-02-15T21:24:58.973Z,-0.96
2023-02-15T21:27:30.084Z,-1.09
2023-02-15T21:30:01.180Z,-1.12
2023-02-15T21:32:31.848Z,-1.13
2023-02-15T21:35:02.478Z,-0.76
2023-02-15T21:37:36.438Z,-0.97
2023-02-15T21:40:28.401Z,-0.67
2023-02-15T21:43:18.353Z,-0.90
2023-02-15T21:46:06.957Z,-0.69
2023-02-15T21:48:37.500Z,-0.91
2023-02-15T21:51:25.758Z,-1.28
2023-02-15T21:53:56.301Z,-1.34
2023-02-15T21:56:24.518Z,-1.39
2023-02-15T21:58:55.056Z,-1.29
2023-02-15T22:01:28.128Z,-1.06
2023-02-15T22:03:59.902Z,-1.31
2023-02-15T22:06:30.415Z,-1.32
2023-02-15T22:09:00.934Z,-1.27
2023-02-15T22:11:32.157Z,-1.32
2023-02-15T22:14:02.672Z,-1.46
2023-02-15T22:16:33.392Z,-1.34
2023-02-15T22:19:01.261Z,-1.11
2023-02-15T22:21:31.887Z,-0.88
2023-02-15T22:24:02.516Z,-0.76
2023-02-15T22:26:32.354Z,-0.87
2023-02-15T22:29:02.930Z,-1.30
2023-02-15T22:31:33.563Z,-1.50
2023-02-15T22:34:04.146Z,-1.22
2023-02-15T22:36:34.954Z,-1.60
2023-02-15T22:39:04.774Z,-1.53
2023-02-15T22:41:35.343Z,-1.43
2023-02-15T22:44:05.159Z,-1.41
2023-02-15T22:46:35.977Z,-1.40
2023-02-15T22:49:06.572Z,-1.36
2023-02-15T22:51:37.032Z,-1.20
2023-02-15T22:54:08.538Z,-1.28
2023-02-15T22:56:52.391Z,-1.21
2023-02-15T22:59:34.225Z,-1.26
2023-02-15T23:02:06.569Z,-1.73
2023-02-15T23:04:37.039Z,-1.67
2023-02-15T23:07:21.617Z,-1.73
2023-02-15T23:09:52.071Z,-1.63
2023-02-15T23:12:49.827Z,-1.57
2023-02-15T23:15:20.378Z,-1.60
2023-02-15T23:17:50.903Z,-1.57
2023-02-15T23:20:20.494Z,-1.58
2023-02-15T23:22:50.049Z,-1.70
2023-02-15T23:25:24.534Z,-1.97
2023-02-15T23:27:57.140Z,-2.02
2023-02-15T23:30:28.023Z,-2.05
2023-02-15T23:32:58.916Z,-1.92
2023-02-15T23:35:28.635Z,-1.96
2023-02-15T23:37:59.171Z,-2.12
2023-02-15T23:40:47.555Z,-2.17
2023-02-15T23:43:22.838Z,-2.16
2023-02-15T23:45:52.540Z,-2.16
2023-02-15T23:48:39.410Z,-2.32
2023-02-15T23:51:11.542Z,-1.99
2023-02-15T23:53:41.235Z,-2.26
2023-02-15T23:56:15.505Z,-2.11
2023-02-15T23:58:46.814Z,-2.21
